createdAt,value
2019-04-22T00:00:53.639Z,19.35
2019-04-22T00:03:22.554Z,18.68
2019-04-22T00:06:14.910Z,19.27
2019-04-22T00:08:50.628Z,19.23
2019-04-22T00:11:25.978Z,19.21
2019-04-22T00:13:55.248Z,19.18
2019-04-22T00:16:26.431Z,19.14
2019-04-22T00:21:25.749Z,19.06
2019-04-22T00:23:51.972Z,19.03
2019-04-22T00:26:23.436Z,19.00
2019-04-22T00:29:08.132Z,18.97
2019-04-22T00:31:40.680Z,18.92
2019-04-22T00:34:14.218Z,18.89
2019-04-22T00:36:42.059Z,18.82
2019-04-22T00:39:25.493Z,18.81
2019-04-22T00:41:48.737Z,18.78
2019-04-22T00:44:35.346Z,18.77
2019-04-22T00:46:55.663Z,18.73
2019-04-22T00:49:58.227Z,18.69
2019-04-22T00:52:01.198Z,18.67
2019-04-22T00:54:25.320Z,18.65
2019-04-22T00:56:48.192Z,18.62
2019-04-22T00:59:23.331Z,18.61
2019-04-22T01:01:52.589Z,18.59
2019-04-22T01:04:27.501Z,18.56
2019-04-22T01:06:57.520Z,18.54
2019-04-22T01:09:34.807Z,18.51
2019-04-22T01:11:59.159Z,18.49
2019-04-22T01:14:28.089Z,18.45
2019-04-22T01:17:03.007Z,18.43
2019-04-22T01:19:36.377Z,18.41
2019-04-22T01:21:58.589Z,18.40
2019-04-22T01:24:27.722Z,18.38
2019-04-22T01:26:53.783Z,18.34
2019-04-22T01:29:22.808Z,18.32
2019-04-22T01:31:43.431Z,18.30
2019-04-22T01:34:31.923Z,18.27
2019-04-22T01:36:59.912Z,18.24
2019-04-22T01:39:37.826Z,18.22
2019-04-22T01:42:06.183Z,18.17
2019-04-22T01:44:40.992Z,18.14
2019-04-22T01:47:10.088Z,18.12
2019-04-22T01:49:40.594Z,18.10
2019-04-22T01:52:12.788Z,18.07
2019-04-22T01:57:16.061Z,18.02
2019-04-22T01:59:37.059Z,17.98
2019-04-22T02:02:16.433Z,17.96
2019-04-22T02:04:53.192Z,17.94
2019-04-22T02:07:16.849Z,17.91
2019-04-22T02:09:53.676Z,17.87
2019-04-22T02:12:19.826Z,17.84
2019-04-22T02:15:06.617Z,17.81
2019-04-22T02:17:25.287Z,17.77
2019-04-22T02:20:02.616Z,17.76
2019-04-22T02:22:38.064Z,17.74
2019-04-22T02:24:56.258Z,17.71
2019-04-22T02:27:35.180Z,17.69
2019-04-22T02:29:51.825Z,17.67
2019-04-22T02:32:38.873Z,17.63
2019-04-22T02:35:04.087Z,17.60
2019-04-22T02:37:27.754Z,17.56
2019-04-22T02:40:03.519Z,17.53
2019-04-22T02:42:27.799Z,17.49
2019-04-22T02:44:58.822Z,17.47
2019-04-22T02:47:29.315Z,17.44
2019-04-22T02:50:07.435Z,17.40
2019-04-22T02:57:57.698Z,17.33
2019-04-22T03:00:18.252Z,17.31
2019-04-22T03:02:52.616Z,17.29
2019-04-22T03:07:41.038Z,17.25
2019-04-22T03:14:00.734Z,17.22
2019-04-22T03:16:40.777Z,17.10
2019-04-22T03:21:27.042Z,17.10
2019-04-22T03:24:13.417Z,17.11
2019-04-22T03:26:43.634Z,17.08
2019-04-22T03:35:09.655Z,17.05
2019-04-22T03:39:38.153Z,17.04
2019-04-22T03:47:21.320Z,17.01
2019-04-22T03:49:39.238Z,16.99
2019-04-22T03:57:26.506Z,16.95
2019-04-22T03:59:41.240Z,16.93
2019-04-22T04:04:37.190Z,16.88
2019-04-22T04:07:26.984Z,16.87
2019-04-22T04:17:11.479Z,16.83
2019-04-22T04:19:45.979Z,16.81
2019-04-22T04:22:21.380Z,16.79
2019-04-22T04:24:55.853Z,16.78
2019-04-22T04:27:43.262Z,16.78
2019-04-22T04:30:02.723Z,16.78
2019-04-22T04:32:30.980Z,16.78
2019-04-22T04:35:07.190Z,16.77
2019-04-22T04:37:32.672Z,16.77
2019-04-22T04:39:59.824Z,16.79
2019-04-22T04:45:12.442Z,16.79
2019-04-22T04:47:35.353Z,16.80
2019-04-22T04:49:54.576Z,16.80
2019-04-22T04:52:38.670Z,16.84
2019-04-22T04:55:06.237Z,16.86
2019-04-22T04:57:45.384Z,16.88
2019-04-22T05:02:28.723Z,16.94
2019-04-22T05:05:02.707Z,16.97
2019-04-22T05:08:43.884Z,17.01
2019-04-22T05:10:04.108Z,17.06
2019-04-22T05:12:47.518Z,17.11
2019-04-22T05:14:54.928Z,17.17
2019-04-22T05:17:35.053Z,17.23
2019-04-22T05:22:28.355Z,17.33
2019-04-22T05:24:59.762Z,17.39
2019-04-22T05:32:30.783Z,17.58
2019-04-22T05:35:00.590Z,17.71
2019-04-22T05:39:56.430Z,18.09
2019-04-22T05:42:22.858Z,18.34
2019-04-22T05:45:04.972Z,18.61
2019-04-22T05:47:37.105Z,18.83
2019-04-22T05:50:02.306Z,19.06
2019-04-22T05:52:31.634Z,19.31
2019-04-22T05:55:08.248Z,19.59
2019-04-22T05:57:33.042Z,19.83
2019-04-22T06:00:06.336Z,20.06
2019-04-22T06:02:48.758Z,20.28
2019-04-22T06:05:11.896Z,20.47
2019-04-22T06:07:38.539Z,20.68
2019-04-22T06:10:14.352Z,20.91
2019-04-22T06:12:34.008Z,21.23
2019-04-22T06:15:13.223Z,21.62
2019-04-22T06:17:47.629Z,22.17
2019-04-22T06:20:15.465Z,22.69
2019-04-22T06:22:50.809Z,23.21
2019-04-22T06:25:22.699Z,23.71
2019-04-22T06:27:52.372Z,24.31
2019-04-22T06:30:20.632Z,24.91
2019-04-22T06:32:51.871Z,25.51
2019-04-22T06:38:12.490Z,26.71
2019-04-22T06:40:23.677Z,27.22
2019-04-22T06:42:57.903Z,27.76
2019-04-22T06:45:23.526Z,28.26
2019-04-22T06:47:59.135Z,28.78
2019-04-22T06:50:28.097Z,29.24
2019-04-22T06:53:00.073Z,29.68
2019-04-22T06:55:34.433Z,30.07
2019-04-22T06:57:59.829Z,30.48
2019-04-22T07:00:30.602Z,30.53
2019-04-22T07:03:23.274Z,30.53
2019-04-22T07:05:27.587Z,30.20
2019-04-22T07:08:04.136Z,29.84
2019-04-22T07:10:38.748Z,29.61
2019-04-22T07:13:01.454Z,29.64
2019-04-22T07:15:46.450Z,29.82
2019-04-22T07:18:11.502Z,30.06
2019-04-22T07:20:42.186Z,30.31
2019-04-22T07:23:07.975Z,30.49
2019-04-22T07:25:34.952Z,30.77
2019-04-22T07:28:09.725Z,30.71
2019-04-22T07:30:41.093Z,30.71
2019-04-22T07:35:52.043Z,31.10
2019-04-22T07:38:18.720Z,31.30
2019-04-22T07:40:43.975Z,31.58
2019-04-22T07:43:19.555Z,31.74
2019-04-22T07:45:42.734Z,31.93
2019-04-22T07:48:27.936Z,32.27
2019-04-22T07:53:13.267Z,33.00
2019-04-22T07:55:46.790Z,33.36
2019-04-22T07:58:27.399Z,33.58
2019-04-22T08:00:57.656Z,33.57
2019-04-22T08:03:28.921Z,33.47
2019-04-22T08:06:05.363Z,33.45
2019-04-22T08:08:26.064Z,33.42
2019-04-22T08:10:59.444Z,33.37
2019-04-22T08:13:25.381Z,33.23
2019-04-22T08:15:58.866Z,33.41
2019-04-22T08:18:28.286Z,33.60
2019-04-22T08:20:59.003Z,33.74
2019-04-22T08:23:31.382Z,34.11
2019-04-22T08:26:12.996Z,34.47
2019-04-22T08:28:30.300Z,34.97
2019-04-22T08:31:01.949Z,35.51
2019-04-22T08:33:35.271Z,36.07
2019-04-22T08:36:10.541Z,36.48
2019-04-22T08:38:42.041Z,36.68
2019-04-22T08:41:16.558Z,37.04
2019-04-22T08:43:56.619Z,37.21
2019-04-22T08:46:16.684Z,37.63
2019-04-22T08:48:43.888Z,37.83
2019-04-22T08:51:15.478Z,37.85
2019-04-22T08:53:57.523Z,37.87
2019-04-22T08:56:29.483Z,37.86
2019-04-22T08:59:07.048Z,37.86
2019-04-22T09:01:25.257Z,37.97
2019-04-22T09:03:52.722Z,37.89
2019-04-22T09:06:29.925Z,37.67
2019-04-22T09:08:55.220Z,37.45
2019-04-22T09:11:33.822Z,37.33
2019-04-22T09:13:55.692Z,37.38
2019-04-22T09:16:32.068Z,37.68
2019-04-22T09:18:59.749Z,37.98
2019-04-22T09:26:42.046Z,37.82
2019-04-22T09:29:05.099Z,38.45
2019-04-22T09:31:33.657Z,38.84
2019-04-22T09:33:59.680Z,39.11
2019-04-22T09:36:49.989Z,39.10
2019-04-22T09:39:01.444Z,39.13
2019-04-22T09:41:43.329Z,39.00
2019-04-22T09:44:04.347Z,38.93
2019-04-22T09:49:11.977Z,39.18
2019-04-22T09:51:41.475Z,39.39
2019-04-22T09:54:19.397Z,39.47
2019-04-22T09:56:43.467Z,39.53
2019-04-22T09:59:07.545Z,39.82
2019-04-22T10:01:48.799Z,39.75
2019-04-22T10:04:24.987Z,39.61
2019-04-22T10:06:39.439Z,39.80
2019-04-22T10:11:44.620Z,40.41
2019-04-22T10:19:18.326Z,40.94
2019-04-22T10:21:54.172Z,40.99
2019-04-22T10:24:37.017Z,41.19
2019-04-22T10:26:55.382Z,41.21
2019-04-22T10:29:25.565Z,41.16
2019-04-22T10:34:13.085Z,41.25
2019-04-22T10:36:28.139Z,41.96
2019-04-22T10:38:58.208Z,42.38
2019-04-22T10:41:28.448Z,42.39
2019-04-22T10:43:57.585Z,42.57
2019-04-22T10:46:28.326Z,42.41
2019-04-22T10:48:58.079Z,43.04
2019-04-22T10:51:28.673Z,43.36
2019-04-22T10:53:57.861Z,43.21
2019-04-22T10:56:27.295Z,43.13
2019-04-22T10:58:56.421Z,43.50
2019-04-22T11:01:25.804Z,44.14
2019-04-22T11:03:55.208Z,44.94
2019-04-22T11:06:25.387Z,45.29
2019-04-22T11:09:00.003Z,45.72
2019-04-22T11:11:34.718Z,46.22
2019-04-22T11:13:58.061Z,46.36
2019-04-22T11:16:27.871Z,46.71
2019-04-22T11:18:57.035Z,47.21
2019-04-22T11:21:29.503Z,47.56
2019-04-22T11:23:58.853Z,47.39
2019-04-22T11:26:28.314Z,47.43
2019-04-22T11:28:57.371Z,47.08
2019-04-22T11:31:26.658Z,46.76
2019-04-22T11:33:56.651Z,46.71
2019-04-22T11:36:30.694Z,46.27
2019-04-22T11:39:02.528Z,45.47
2019-04-22T11:41:31.142Z,44.72
2019-04-22T11:44:01.311Z,44.23
2019-04-22T11:46:31.504Z,43.34
2019-04-22T11:49:01.032Z,41.86
2019-04-22T11:51:30.147Z,40.44
2019-04-22T11:53:59.241Z,38.72
2019-04-22T11:56:29.391Z,37.56
2019-04-22T11:59:00.611Z,36.54
2019-04-22T12:01:30.843Z,35.71
2019-04-22T12:04:00.033Z,34.89
2019-04-22T12:06:29.095Z,34.17
2019-04-22T12:09:05.636Z,33.82
2019-04-22T12:11:36.458Z,33.46
2019-04-22T12:14:06.264Z,33.02
2019-04-22T12:16:35.568Z,32.47
2019-04-22T12:19:05.061Z,32.06
2019-04-22T12:21:35.216Z,31.79
2019-04-22T12:24:05.527Z,31.57
2019-04-22T12:26:34.838Z,31.42
2019-04-22T12:29:04.770Z,31.33
2019-04-22T12:31:35.550Z,31.33
2019-04-22T12:34:06.039Z,31.33
2019-04-22T12:36:36.253Z,31.29
2019-04-22T12:39:09.661Z,31.21
2019-04-22T12:41:40.156Z,31.14
2019-04-22T12:44:09.425Z,31.11
2019-04-22T12:46:38.484Z,31.07
2019-04-22T12:49:07.992Z,31.07
2019-04-22T12:51:37.158Z,31.14
2019-04-22T12:54:08.845Z,31.18
2019-04-22T12:56:37.922Z,31.15
2019-04-22T12:59:07.685Z,31.05
2019-04-22T13:01:37.344Z,31.05
2019-04-22T13:04:09.641Z,31.07
2019-04-22T13:06:37.575Z,31.03
2019-04-22T13:09:08.679Z,31.07
2019-04-22T13:11:38.857Z,31.08
2019-04-22T13:14:08.988Z,31.00
2019-04-22T13:16:40.716Z,30.99
2019-04-22T13:19:13.174Z,31.06
2019-04-22T13:21:40.780Z,31.13
2019-04-22T13:24:10.984Z,31.12
2019-04-22T13:26:41.165Z,31.05
2019-04-22T13:29:12.775Z,31.00
2019-04-22T13:31:42.508Z,31.00
2019-04-22T13:34:21.338Z,30.93
2019-04-22T13:36:44.922Z,30.89
2019-04-22T13:39:13.592Z,30.80
2019-04-22T13:41:48.745Z,30.85
2019-04-22T13:44:14.668Z,30.90
2019-04-22T13:47:06.813Z,30.79
2019-04-22T13:49:54.132Z,30.75
2019-04-22T13:54:51.495Z,30.56
2019-04-22T13:57:03.853Z,30.64
2019-04-22T13:59:26.698Z,30.66
2019-04-22T14:02:12.580Z,30.68
2019-04-22T14:04:42.995Z,30.67
2019-04-22T14:07:14.726Z,30.67
2019-04-22T14:09:44.517Z,30.61
2019-04-22T14:12:15.859Z,30.57
2019-04-22T14:14:45.805Z,30.62
2019-04-22T14:17:16.875Z,30.66
2019-04-22T14:19:48.470Z,30.71
2019-04-22T14:22:17.923Z,30.69
2019-04-22T14:24:47.242Z,30.70
2019-04-22T14:27:31.766Z,30.66
2019-04-22T14:29:49.396Z,30.64
2019-04-22T14:34:51.050Z,30.58
2019-04-22T14:37:20.586Z,30.60
2019-04-22T14:39:49.670Z,30.66
2019-04-22T14:42:40.211Z,30.65
2019-04-22T14:44:23.496Z,30.65
2019-04-22T14:45:23.130Z,30.58
2019-04-22T14:47:47.632Z,30.44
2019-04-22T14:50:17.549Z,30.36
2019-04-22T14:52:48.469Z,30.34
2019-04-22T14:55:06.070Z,30.33
2019-04-22T14:57:27.754Z,30.28
2019-04-22T14:59:57.849Z,30.28
2019-04-22T15:02:33.966Z,30.25
2019-04-22T15:05:03.887Z,30.34
2019-04-22T15:07:33.090Z,30.34
2019-04-22T15:10:02.193Z,30.23
2019-04-22T15:12:39.254Z,30.23
2019-04-22T15:15:09.153Z,30.27
2019-04-22T15:17:47.253Z,30.18
2019-04-22T15:20:27.733Z,30.16
2019-04-22T15:22:57.098Z,30.17
2019-04-22T15:25:26.297Z,30.17
2019-04-22T15:27:55.426Z,30.20
2019-04-22T15:30:25.536Z,30.20
2019-04-22T15:32:54.858Z,30.10
2019-04-22T15:35:25.256Z,30.05
2019-04-22T15:37:55.247Z,29.98
2019-04-22T15:40:24.872Z,30.01
2019-04-22T15:42:55.027Z,30.00
2019-04-22T15:45:25.884Z,29.91
2019-04-22T15:47:55.916Z,29.89
2019-04-22T15:50:26.548Z,29.76
2019-04-22T15:52:58.921Z,29.65
2019-04-22T15:55:27.164Z,29.59
2019-04-22T15:57:57.621Z,29.56
2019-04-22T16:00:38.385Z,29.52
2019-04-22T16:02:57.844Z,29.49
2019-04-22T16:05:28.038Z,29.42
2019-04-22T16:07:57.386Z,29.31
2019-04-22T16:10:28.095Z,29.19
2019-04-22T16:13:07.470Z,29.14
2019-04-22T16:15:28.807Z,29.08
2019-04-22T16:18:00.871Z,29.04
2019-04-22T16:20:30.071Z,29.03
2019-04-22T16:23:15.559Z,28.90
2019-04-22T16:26:13.568Z,28.86
2019-04-22T16:28:45.127Z,28.82
2019-04-22T16:31:15.406Z,28.75
2019-04-22T16:33:47.440Z,28.73
2019-04-22T16:36:16.693Z,28.74
2019-04-22T16:38:48.935Z,28.74
2019-04-22T16:41:18.941Z,28.78
2019-04-22T16:43:48.869Z,28.78
2019-04-22T16:46:19.409Z,28.72
2019-04-22T16:48:49.727Z,28.69
2019-04-22T16:51:20.165Z,28.63
2019-04-22T16:53:50.737Z,28.61
2019-04-22T16:56:20.649Z,28.56
2019-04-22T16:58:50.726Z,28.54
2019-04-22T17:01:52.588Z,28.48
2019-04-22T17:04:28.353Z,28.44
2019-04-22T17:06:57.749Z,28.35
2019-04-22T17:09:27.851Z,28.30
2019-04-22T17:11:58.090Z,28.15
2019-04-22T17:14:34.521Z,28.09
2019-04-22T17:16:57.969Z,28.06
2019-04-22T17:19:27.106Z,27.93
2019-04-22T17:21:57.476Z,27.93
2019-04-22T17:24:27.842Z,27.80
2019-04-22T17:26:57.011Z,27.75
2019-04-22T17:29:26.459Z,27.62
2019-04-22T17:32:00.642Z,27.57
2019-04-22T17:34:29.615Z,27.53
2019-04-22T17:36:59.324Z,27.43
2019-04-22T17:39:41.156Z,27.37
2019-04-22T17:42:22.165Z,27.27
2019-04-22T17:45:00.796Z,27.15
2019-04-22T17:47:35.952Z,27.17
2019-04-22T17:50:11.726Z,26.98
2019-04-22T17:52:42.699Z,26.91
2019-04-22T17:55:11.424Z,26.84
2019-04-22T17:57:40.949Z,26.75
2019-04-22T18:00:14.479Z,26.71
2019-04-22T18:02:45.239Z,26.67
2019-04-22T18:05:03.511Z,26.57
2019-04-22T18:07:48.821Z,26.50
2019-04-22T18:13:15.721Z,26.37
2019-04-22T18:15:18.455Z,26.29
2019-04-22T18:17:54.195Z,26.21
2019-04-22T18:20:20.916Z,26.10
2019-04-22T18:22:49.064Z,26.01
2019-04-22T18:25:15.041Z,25.96
2019-04-22T18:28:00.714Z,25.84
2019-04-22T18:30:20.445Z,25.71
2019-04-22T18:32:57.054Z,25.64
2019-04-22T18:35:26.916Z,25.55
2019-04-22T18:38:05.106Z,25.44
2019-04-22T18:40:31.035Z,25.36
2019-04-22T18:43:04.832Z,25.30
2019-04-22T18:45:39.848Z,25.20
2019-04-22T18:47:55.483Z,25.06
2019-04-22T18:50:49.880Z,24.99
2019-04-22T18:53:37.158Z,24.92
2019-04-22T18:56:09.753Z,24.87
2019-04-22T18:58:30.260Z,24.75
2019-04-22T19:00:48.378Z,24.68
2019-04-22T19:03:22.647Z,24.66
2019-04-22T19:06:13.046Z,24.58
2019-04-22T19:08:55.416Z,24.49
2019-04-22T19:11:12.628Z,24.40
2019-04-22T19:13:56.778Z,24.36
2019-04-22T19:16:27.062Z,24.34
2019-04-22T19:18:50.202Z,24.26
2019-04-22T19:21:30.383Z,24.18
2019-04-22T19:23:44.991Z,24.11
2019-04-22T19:26:20.475Z,24.03
2019-04-22T19:28:46.525Z,24.00
2019-04-22T19:31:21.895Z,23.89
2019-04-22T19:33:45.993Z,23.84
2019-04-22T19:36:20.778Z,23.78
2019-04-22T19:38:51.061Z,23.72
2019-04-22T19:41:24.436Z,23.66
2019-04-22T19:43:49.185Z,23.60
2019-04-22T19:46:20.976Z,23.52
2019-04-22T19:48:58.021Z,23.48
2019-04-22T19:51:27.912Z,23.41
2019-04-22T19:53:56.172Z,23.36
2019-04-22T19:56:21.194Z,23.27
2019-04-22T19:58:53.427Z,23.20
2019-04-22T20:01:39.751Z,23.12
2019-04-22T20:04:25.175Z,23.08
2019-04-22T20:06:52.841Z,23.03
2019-04-22T20:09:26.998Z,22.92
2019-04-22T20:11:50.110Z,22.81
2019-04-22T20:14:24.581Z,22.71
2019-04-22T20:16:46.557Z,22.68
2019-04-22T20:19:26.898Z,22.63
2019-04-22T20:21:51.242Z,22.57
2019-04-22T20:24:12.314Z,22.48
2019-04-22T20:27:15.215Z,22.47
2019-04-22T20:29:30.743Z,22.38
2019-04-22T20:31:59.245Z,22.31
2019-04-22T20:34:33.833Z,22.24
2019-04-22T20:37:03.523Z,22.18
2019-04-22T20:39:36.742Z,22.11
2019-04-22T20:42:12.540Z,22.07
2019-04-22T20:44:37.844Z,22.02
2019-04-22T20:47:00.689Z,21.97
2019-04-22T20:49:35.267Z,21.89
2019-04-22T20:52:06.388Z,21.82
2019-04-22T20:54:37.344Z,21.75
2019-04-22T20:57:05.924Z,21.72
2019-04-22T20:59:33.452Z,21.65
2019-04-22T21:02:03.138Z,21.63
2019-04-22T21:04:30.422Z,21.54
2019-04-22T21:07:07.665Z,21.47
2019-04-22T21:09:37.703Z,21.47
2019-04-22T21:12:08.017Z,21.42
2019-04-22T21:14:41.413Z,21.37
2019-04-22T21:17:13.166Z,21.32
2019-04-22T21:19:52.925Z,21.29
2019-04-22T21:22:16.234Z,21.20
2019-04-22T21:24:46.090Z,21.12
2019-04-22T21:27:21.042Z,21.08
2019-04-22T21:29:43.319Z,21.02
2019-04-22T21:32:19.926Z,20.95
2019-04-22T21:34:53.978Z,20.94
2019-04-22T21:37:38.310Z,20.89
2019-04-22T21:39:44.853Z,20.87
2019-04-22T21:42:24.975Z,20.78
2019-04-22T21:44:49.660Z,20.76
2019-04-22T21:47:28.943Z,20.70
2019-04-22T21:50:07.894Z,20.68
2019-04-22T21:52:24.381Z,20.64
2019-04-22T21:55:03.859Z,20.60
2019-04-22T21:57:58.867Z,20.57
2019-04-22T22:00:31.410Z,20.47
2019-04-22T22:03:02.180Z,20.45
2019-04-22T22:05:18.630Z,20.39
2019-04-22T22:07:40.010Z,20.36
2019-04-22T22:10:31.101Z,20.30
2019-04-22T22:12:57.399Z,20.32
2019-04-22T22:15:24.577Z,20.20
2019-04-22T22:18:00.382Z,20.16
2019-04-22T22:20:31.032Z,20.11
2019-04-22T22:23:12.883Z,20.05
2019-04-22T22:25:30.236Z,20.05
2019-04-22T22:28:07.786Z,19.95
2019-04-22T22:30:55.378Z,19.94
2019-04-22T22:33:05.911Z,19.90
2019-04-22T22:35:38.958Z,19.90
2019-04-22T22:38:09.080Z,19.84
2019-04-22T22:40:26.085Z,19.79
2019-04-22T22:42:55.095Z,19.81
2019-04-22T22:45:33.743Z,19.76
2019-04-22T22:48:21.661Z,19.73
2019-04-22T22:50:43.213Z,19.66
2019-04-22T22:55:45.890Z,19.52
2019-04-22T22:58:20.979Z,19.53
2019-04-22T23:00:49.806Z,19.49
2019-04-22T23:08:25.752Z,19.33
2019-04-22T23:11:00.986Z,19.24
2019-04-22T23:13:25.833Z,19.22
2019-04-22T23:15:44.343Z,19.26
2019-04-22T23:18:03.908Z,19.17
2019-04-22T23:20:39.507Z,19.09
2019-04-22T23:23:25.772Z,19.05
2019-04-22T23:26:00.659Z,18.97
2019-04-22T23:28:37.245Z,18.91
2019-04-22T23:31:21.091Z,18.88
2019-04-22T23:33:59.508Z,18.81
2019-04-22T23:36:32.597Z,18.79
2019-04-22T23:39:13.931Z,18.74
2019-04-22T23:41:53.776Z,18.73
2019-04-22T23:46:48.965Z,18.66
2019-04-22T23:49:18.027Z,18.66
2019-04-22T23:52:04.957Z,18.59
2019-04-22T23:54:35.553Z,18.58
2019-04-22T23:56:52.531Z,18.58
2019-04-22T23:59:38.481Z,18.58
